DEPNY EDMO-EDMA
Flight info
| Callsign | DEPNY |
|---|---|
| Flight time | N/A |
| Altitude | 3500 |
| Route | VFR |
| Aircraft | P28/L-V/N |
Departure
| Time | 2026-05-04 19:06 |
|---|---|
| Airport | Oberpfaffenhofen Airport (EDMO) |
Arrival
| Time | N/A |
|---|---|
| Airport | Augsburg Airport (EDMA) |
| Time | Latitude | Longitude | Altitude | Speed | Heading |
|---|---|---|---|---|---|
| 2026-05-04 18:59 | 48.08906 | 11.29022 | 1918 ft | 0 kts | 84° |
| 2026-05-04 18:59 | 48.08907 | 11.29034 | 1918 ft | 6 kts | 84° |
| 2026-05-04 19:00 | 48.08908 | 11.29131 | 1919 ft | 2 kts | 96° |
| 2026-05-04 19:00 | 48.08908 | 11.29132 | 1919 ft | 0 kts | 97° |
| 2026-05-04 19:04 | 48.08908 | 11.29135 | 1919 ft | 3 kts | 97° |
| 2026-05-04 19:04 | 48.08901 | 11.29180 | 1919 ft | 0 kts | 127° |
| 2026-05-04 19:05 | 48.08884 | 11.29208 | 1920 ft | 11 kts | 148° |
| 2026-05-04 19:05 | 48.08808 | 11.29216 | 1922 ft | 21 kts | 211° |
| 2026-05-04 19:05 | 48.08561 | 11.28884 | 1924 ft | 72 kts | 221° |
| 2026-05-04 19:06 | 48.08099 | 11.28283 | 1994 ft | 99 kts | 222° |
| 2026-05-04 19:06 | 48.07547 | 11.27581 | 2216 ft | 106 kts | 222° |
| 2026-05-04 19:06 | 48.07134 | 11.26706 | 2459 ft | 111 kts | 260° |
| 2026-05-04 19:06 | 48.07309 | 11.25590 | 2685 ft | 116 kts | 302° |
| 2026-05-04 19:07 | 48.08020 | 11.25027 | 2855 ft | 124 kts | 355° |
| 2026-05-04 19:07 | 48.08870 | 11.25320 | 3002 ft | 133 kts | 24° |
| 2026-05-04 19:07 | 48.09769 | 11.25818 | 3104 ft | 141 kts | 22° |
| 2026-05-04 19:07 | 48.10730 | 11.26318 | 3057 ft | 153 kts | 20° |
| 2026-05-04 19:08 | 48.11732 | 11.26889 | 3130 ft | 153 kts | 28° |
| 2026-05-04 19:08 | 48.12661 | 11.27716 | 3125 ft | 156 kts | 34° |
| 2026-05-04 19:08 | 48.13584 | 11.28573 | 3168 ft | 156 kts | 32° |
| 2026-05-04 19:08 | 48.14592 | 11.29152 | 3252 ft | 157 kts | 16° |
| 2026-05-04 19:09 | 48.15657 | 11.29099 | 3393 ft | 156 kts | 343° |
| 2026-05-04 19:09 | 48.16513 | 11.28040 | 3386 ft | 163 kts | 313° |
| 2026-05-04 19:09 | 48.17218 | 11.26717 | 3469 ft | 160 kts | 308° |
| 2026-05-04 19:09 | 48.17842 | 11.25365 | 3632 ft | 155 kts | 304° |
| 2026-05-04 19:10 | 48.18415 | 11.23974 | 3658 ft | 162 kts | 301° |
| 2026-05-04 19:10 | 48.18962 | 11.22427 | 3501 ft | 172 kts | 297° |
| 2026-05-04 19:10 | 48.19488 | 11.20815 | 3497 ft | 170 kts | 296° |
| 2026-05-04 19:10 | 48.19998 | 11.19216 | 3494 ft | 170 kts | 296° |
| 2026-05-04 19:11 | 48.20503 | 11.17623 | 3493 ft | 169 kts | 297° |
| 2026-05-04 19:11 | 48.20998 | 11.16031 | 3489 ft | 167 kts | 296° |
| 2026-05-04 19:11 | 48.21456 | 11.14431 | 3490 ft | 167 kts | 291° |
| 2026-05-04 19:11 | 48.21821 | 11.12782 | 3487 ft | 166 kts | 288° |
| 2026-05-04 19:12 | 48.22153 | 11.11125 | 3491 ft | 166 kts | 287° |
| 2026-05-04 19:12 | 48.22798 | 11.07799 | 3497 ft | 166 kts | 287° |
| 2026-05-04 19:12 | 48.23073 | 11.06115 | 3495 ft | 167 kts | 277° |
| 2026-05-04 19:13 | 48.22837 | 11.04420 | 3495 ft | 168 kts | 246° |
| 2026-05-04 19:13 | 48.22329 | 11.02852 | 3507 ft | 167 kts | 242° |
| 2026-05-04 19:13 | 48.21777 | 11.01317 | 3506 ft | 167 kts | 240° |
| 2026-05-04 19:13 | 48.21211 | 10.99796 | 3504 ft | 167 kts | 240° |
| 2026-05-04 19:14 | 48.20641 | 10.98280 | 3503 ft | 167 kts | 240° |
| 2026-05-04 19:14 | 48.20069 | 10.96770 | 3502 ft | 166 kts | 240° |
| 2026-05-04 19:14 | 48.19497 | 10.95261 | 3506 ft | 167 kts | 240° |
| 2026-05-04 19:14 | 48.18926 | 10.93747 | 3511 ft | 167 kts | 240° |
| 2026-05-04 19:15 | 48.18357 | 10.92234 | 3503 ft | 167 kts | 240° |
| 2026-05-04 19:15 | 48.17789 | 10.90717 | 3503 ft | 167 kts | 240° |
| 2026-05-04 19:15 | 48.17221 | 10.89203 | 3505 ft | 167 kts | 240° |
| 2026-05-04 19:15 | 48.16659 | 10.87709 | 3506 ft | 167 kts | 240° |
| 2026-05-04 19:16 | 48.16087 | 10.86193 | 3508 ft | 167 kts | 240° |
| 2026-05-04 19:16 | 48.15514 | 10.84676 | 3507 ft | 167 kts | 240° |
| 2026-05-04 19:16 | 48.14941 | 10.83160 | 3506 ft | 167 kts | 240° |
| 2026-05-04 19:16 | 48.14368 | 10.81639 | 3502 ft | 168 kts | 240° |
| 2026-05-04 19:17 | 48.13749 | 10.80174 | 3490 ft | 166 kts | 231° |
| 2026-05-04 19:17 | 48.12778 | 10.79288 | 3485 ft | 165 kts | 196° |
| 2026-05-04 19:17 | 48.11658 | 10.78983 | 3500 ft | 163 kts | 187° |
| 2026-05-04 19:17 | 48.10531 | 10.78775 | 3503 ft | 163 kts | 185° |
| 2026-05-04 19:18 | 48.09405 | 10.78599 | 3501 ft | 163 kts | 185° |
| 2026-05-04 19:18 | 48.08346 | 10.78447 | 3830 ft | 144 kts | 185° |
| 2026-05-04 19:18 | 48.07368 | 10.78325 | 4023 ft | 142 kts | 185° |
| 2026-05-04 19:18 | 48.06366 | 10.78208 | 4118 ft | 145 kts | 185° |
| 2026-05-04 19:19 | 48.05375 | 10.78102 | 4317 ft | 141 kts | 185° |
| 2026-05-04 19:19 | 48.04385 | 10.78002 | 4425 ft | 144 kts | 185° |
| 2026-05-04 19:19 | 48.03380 | 10.77904 | 4503 ft | 148 kts | 185° |
| 2026-05-04 19:19 | 48.02333 | 10.77803 | 4500 ft | 153 kts | 185° |
| 2026-05-04 19:20 | 48.01260 | 10.77697 | 4500 ft | 156 kts | 185° |
| 2026-05-04 19:20 | 48.00173 | 10.77592 | 4517 ft | 157 kts | 185° |
| 2026-05-04 19:20 | 47.99077 | 10.77489 | 4518 ft | 158 kts | 185° |
| 2026-05-04 19:20 | 47.97979 | 10.77385 | 4520 ft | 158 kts | 185° |
| 2026-05-04 19:21 | 47.96878 | 10.77281 | 4525 ft | 159 kts | 185° |
| 2026-05-04 19:21 | 47.95774 | 10.77179 | 4525 ft | 159 kts | 185° |
| 2026-05-04 19:21 | 47.94672 | 10.77079 | 4525 ft | 159 kts | 185° |
| 2026-05-04 19:21 | 47.93567 | 10.76978 | 4522 ft | 159 kts | 185° |
| 2026-05-04 19:22 | 47.92463 | 10.76897 | 4531 ft | 160 kts | 185° |
| 2026-05-04 19:22 | 47.91346 | 10.76849 | 4528 ft | 161 kts | 185° |
| 2026-05-04 19:22 | 47.90223 | 10.76814 | 4527 ft | 161 kts | 185° |
| 2026-05-04 19:22 | 47.89103 | 10.76784 | 4525 ft | 161 kts | 185° |
| 2026-05-04 19:23 | 47.87981 | 10.76762 | 4524 ft | 161 kts | 185° |
| 2026-05-04 19:23 | 47.86861 | 10.76740 | 4527 ft | 161 kts | 185° |
| 2026-05-04 19:23 | 47.85742 | 10.76718 | 4523 ft | 161 kts | 185° |
| 2026-05-04 19:23 | 47.84625 | 10.76701 | 4520 ft | 160 kts | 185° |
| 2026-05-04 19:24 | 47.83527 | 10.76679 | 4534 ft | 160 kts | 185° |
| 2026-05-04 19:24 | 47.82404 | 10.76656 | 4531 ft | 161 kts | 185° |
| 2026-05-04 19:24 | 47.81284 | 10.76636 | 4515 ft | 160 kts | 185° |
| 2026-05-04 19:24 | 47.80175 | 10.76624 | 4508 ft | 159 kts | 185° |
| 2026-05-04 19:25 | 47.79069 | 10.76604 | 4519 ft | 159 kts | 185° |
| 2026-05-04 19:25 | 47.77959 | 10.76583 | 4520 ft | 161 kts | 185° |
| 2026-05-04 19:25 | 47.76833 | 10.76562 | 4517 ft | 163 kts | 185° |
| 2026-05-04 19:25 | 47.75699 | 10.76541 | 4504 ft | 163 kts | 185° |
| 2026-05-04 19:26 | 47.74569 | 10.76519 | 4496 ft | 162 kts | 185° |
| 2026-05-04 19:26 | 47.73446 | 10.76505 | 4497 ft | 161 kts | 185° |
| 2026-05-04 19:26 | 47.72330 | 10.76469 | 4493 ft | 159 kts | 188° |
| 2026-05-04 19:26 | 47.71230 | 10.76274 | 4502 ft | 159 kts | 192° |
| 2026-05-04 19:27 | 47.70130 | 10.76023 | 4503 ft | 160 kts | 193° |
| 2026-05-04 19:27 | 47.69031 | 10.75757 | 4503 ft | 160 kts | 194° |
| 2026-05-04 19:27 | 47.67933 | 10.75477 | 4503 ft | 160 kts | 194° |
| 2026-05-04 19:27 | 47.66834 | 10.75192 | 4496 ft | 160 kts | 194° |
| 2026-05-04 19:28 | 47.65735 | 10.74907 | 4501 ft | 160 kts | 194° |
| 2026-05-04 19:28 | 47.64638 | 10.74621 | 4512 ft | 161 kts | 194° |
| 2026-05-04 19:28 | 47.63530 | 10.74328 | 4503 ft | 162 kts | 194° |
| 2026-05-04 19:28 | 47.62421 | 10.74041 | 4496 ft | 162 kts | 194° |
| 2026-05-04 19:29 | 47.61316 | 10.73758 | 4501 ft | 161 kts | 193° |
| 2026-05-04 19:29 | 47.60225 | 10.73466 | 4498 ft | 161 kts | 194° |
| 2026-05-04 19:29 | 47.59115 | 10.73181 | 4488 ft | 162 kts | 192° |
| 2026-05-04 19:29 | 47.58022 | 10.73714 | 4359 ft | 173 kts | 147° |
| 2026-05-04 19:30 | 47.57117 | 10.74772 | 4161 ft | 164 kts | 144° |
| 2026-05-04 19:30 | 47.56134 | 10.75403 | 4035 ft | 143 kts | 180° |
| 2026-05-04 19:30 | 47.55485 | 10.74646 | 3991 ft | 130 kts | 259° |
| 2026-05-04 19:30 | 47.55726 | 10.73389 | 3813 ft | 131 kts | 304° |
| 2026-05-04 19:31 | 47.56382 | 10.72458 | 3598 ft | 128 kts | 315° |
| 2026-05-04 19:31 | 47.57000 | 10.71603 | 3603 ft | 113 kts | 314° |
| 2026-05-04 19:31 | 47.57560 | 10.70786 | 3462 ft | 115 kts | 315° |
| 2026-05-04 19:31 | 47.58109 | 10.69935 | 3375 ft | 111 kts | 309° |
| 2026-05-04 19:32 | 47.58547 | 10.69029 | 3324 ft | 106 kts | 303° |
| 2026-05-04 19:32 | 47.58882 | 10.68095 | 3320 ft | 99 kts | 293° |
| 2026-05-04 19:32 | 47.58818 | 10.67204 | 3208 ft | 89 kts | 225° |
| 2026-05-04 19:32 | 47.58258 | 10.67347 | 2983 ft | 93 kts | 126° |
| 2026-05-04 19:33 | 47.58223 | 10.68238 | 2673 ft | 84 kts | 71° |
| 2026-05-04 19:33 | 47.58289 | 10.69023 | 2588 ft | 57 kts | 81° |
| 2026-05-04 19:33 | 47.58302 | 10.69247 | 2590 ft | 5 kts | 69° |
| 2026-05-04 19:33 | 47.58316 | 10.69162 | 2588 ft | 14 kts | 255° |
| 2026-05-04 19:34 | 47.58301 | 10.68998 | 2589 ft | 13 kts | 262° |
| 2026-05-04 19:34 | 47.58292 | 10.68893 | 2590 ft | 8 kts | 261° |
| 2026-05-04 19:34 | 47.58286 | 10.68828 | 2589 ft | 7 kts | 262° |
| 2026-05-04 19:34 | 47.58276 | 10.68726 | 2588 ft | 11 kts | 264° |
| 2026-05-04 19:35 | 47.58307 | 10.68669 | 2594 ft | 8 kts | 333° |
| 2026-05-04 19:35 | 47.58339 | 10.68656 | 2590 ft | 0 kts | 352° |